Overview Statistics Trail Chart Weather Telemetry Raw packets
 

This is the latest recevied weather packets stored in our database for station/object DL2GPS-3. If no packets are shown the sender has not sent any weather packets the latest 10 day(s).

<< 22 23 24 25 26 27 28 >>
Time Temp. Humidity Pressure Rain* Wind** Luminosity Snow
1788357975 22.78° C 45% 1024.8 hPa - - - -
1788357375 23.89° C 42% 1024.8 hPa - - - -
1788356773 23.89° C 41% 1024.9 hPa - - - -
1788356172 24.44° C 40% 1024.8 hPa - - - -
1788355571 24.44° C 40% 1024.8 hPa - - - -
1788354970 23.89° C 40% 1024.8 hPa - - - -
1788354369 23.33° C 40% 1024.9 hPa - - - -
1788353768 23.89° C 44% 1025 hPa - - - -
1788353167 23.89° C 44% 1025 hPa - - - -
1788352566 25° C 44% 1025 hPa - - - -
1788351965 25° C 42% 1024.8 hPa - - - -
1788351364 23.89° C 45% 1025 hPa - - - -
1788350763 23.89° C 46% 1025.1 hPa - - - -
1788350162 23.89° C 47% 1025.1 hPa - - - -
1788349561 23.33° C 46% 1025 hPa - - - -
1788348961 24.44° C 46% 1025.1 hPa - - - -
1788348360 24.44° C 46% 1025.1 hPa - - - -
1788347759 24.44° C 46% 1025 hPa - - - -
1788347158 24.44° C 46% 1025.2 hPa - - - -
1788346557 23.89° C 46% 1025.2 hPa - - - -
1788345956 24.44° C 48% 1025.3 hPa - - - -
1788345354 23.33° C 50% 1025.3 hPa - - - -
1788344753 22.78° C 51% 1025.4 hPa - - - -
1788344152 22.78° C 51% 1025.4 hPa - - - -
1788343552 22.78° C 51% 1025.4 hPa - - - -

* Rain since midnight (hover to see other rain measurements)
** Current wind speed in m/s (hover to see current wind gust speed)